Robinsonville, Mississippi
Current Conditions -  °F | °C
As of 10:55 AM on Saturday 22 Nov 2014 (Local Time) from KUTA Reporting Station
Scattered Clouds Scattered Clouds  
Wind Chill: 59°   Ceiling: Unl
Heat Index: 59°   Visibility: 10mi
Dew Point: 45°   Wind: 10mph
Humidity: 59%   Direction: 160°SSE
Pressure: 30.22"   Gusts: NA
Location:  34.82°N, 90.32°W
Report Text: KUTA 221655Z AUTO 16009KT 10SM SCT065 15/07 A3022 RMK AO2 LTG DSNT SW AND W
Loading
Personal Weather Stations






























Interactive Weather Map New forecast layout! Learn more

10-Day Weather Forecast

Advertisements
Track Severe Weather on mobile